Time;durP1;ratioP1;P1;durP2;ratioP2;P2;SDS_P1;SDS_P2;PMS_P1;PMS_P2;Temp;Humidity;BMP_temperature;BMP_pressure;BME280_temperature;BME280_humidity;BME280_pressure;Samples;Min_cycle;Max_cycle;Signal;HPM_P1;HPM_P2
2022/02/05 00:02:20;;;;;;;29.40;15.30;;;;;;;1.34;67.41;98432.16;105985;1274;98022;-68
2022/02/05 00:04:51;;;;;;;29.00;14.50;;;;;;;1.36;67.33;98427.52;106138;1274;111242;-68
2022/02/05 00:07:22;;;;;;;26.70;12.90;;;;;;;1.37;67.36;98425.57;106171;1274;97894;-68
2022/02/05 00:40:00;;;;;;;29.30;15.10;;;;;;;1.33;67.30;98378.71;106118;1274;111727;-68
2022/02/05 00:42:38;;;;;;;31.60;15.80;;;;;;;1.33;67.33;98385.02;106136;1274;97969;-68
2022/02/05 00:45:11;;;;;;;28.60;15.40;;;;;;;1.32;67.12;98380.36;106124;1274;108209;-69
2022/02/05 00:47:45;;;;;;;31.60;15.90;;;;;;;1.33;67.05;98383.07;106216;1274;97957;-69
2022/02/05 00:50:17;;;;;;;31.90;15.00;;;;;;;1.35;67.34;98381.08;106124;1274;97883;-69
2022/02/05 00:52:59;;;;;;;31.90;15.60;;;;;;;1.37;67.27;98378.05;106043;1274;111375;-68
2022/02/05 00:55:34;;;;;;;29.10;15.00;;;;;;;1.38;67.32;98375.19;106029;1274;97910;-68
2022/02/05 00:58:08;;;;;;;28.70;14.30;;;;;;;1.40;67.21;98370.36;106102;1274;106812;-69
2022/02/05 01:00:37;;;;;;;29.50;15.10;;;;;;;1.41;67.19;98367.04;106108;1274;95345;-70
2022/02/05 01:03:08;;;;;;;31.40;14.30;;;;;;;1.41;67.28;98366.16;106208;1274;97876;-67
2022/02/05 01:05:40;;;;;;;30.00;13.30;;;;;;;1.42;67.19;98363.09;106178;1274;112508;-69
2022/02/05 01:08:11;;;;;;;28.10;14.80;;;;;;;1.44;67.22;98365.64;106136;1274;97953;-69
2022/02/05 01:10:39;;;;;;;29.50;14.50;;;;;;;1.46;67.35;98363.27;106129;1274;108377;-69
2022/02/05 01:13:10;;;;;;;31.30;14.10;;;;;;;1.48;67.20;98361.59;106022;1274;97873;-67
2022/02/05 01:16:01;;;;;;;26.40;14.10;;;;;;;1.50;67.15;98363.27;106028;1275;97893;-68
2022/02/05 01:18:34;;;;;;;27.70;13.80;;;;;;;1.53;67.27;98358.07;106134;1274;112294;-72
2022/02/05 01:26:19;;;;;;;28.30;14.50;;;;;;;1.63;67.12;98355.11;106171;1274;97978;-69
2022/02/05 01:28:56;;;;;;;30.00;13.80;;;;;;;1.67;67.26;98355.51;106079;1274;95287;-68
2022/02/05 01:31:28;;;;;;;30.10;15.40;;;;;;;1.68;67.26;98348.96;106174;1274;110378;-69
2022/02/05 01:34:17;;;;;;;30.60;14.40;;;;;;;1.70;67.46;98344.52;106206;1274;97888;-69
2022/02/05 01:57:11;;;;;;;30.40;14.40;;;;;;;1.75;66.99;98339.90;106226;1274;97882;-69
2022/02/05 02:05:52;;;;;;;26.90;13.00;;;;;;;1.77;67.36;98328.23;106232;1277;107823;-68
2022/02/05 02:17:55;;;;;;;29.50;14.80;;;;;;;1.82;67.22;98311.22;105819;1274;97908;-69
2022/02/05 02:25:30;;;;;;;27.80;14.70;;;;;;;1.87;67.51;98291.56;106086;1274;97001;-66
2022/02/05 02:28:12;;;;;;;31.80;13.40;;;;;;;1.88;67.15;98290.67;106138;1274;112011;-67
2022/02/05 02:30:53;;;;;;;30.20;15.00;;;;;;;1.88;67.03;98289.77;106125;1274;97896;-69
2022/02/05 02:33:32;;;;;;;29.30;14.80;;;;;;;1.88;67.17;98290.83;106127;1274;107794;-68
2022/02/05 02:36:17;;;;;;;29.80;14.20;;;;;;;1.88;66.96;98282.95;106187;1274;97842;-71
2022/02/05 02:38:51;;;;;;;29.10;14.10;;;;;;;1.88;67.14;98292.94;106099;1275;97972;-68
2022/02/05 02:41:30;;;;;;;27.20;13.80;;;;;;;1.88;67.16;98289.81;106113;1274;112339;-72
2022/02/05 02:43:58;;;;;;;29.90;14.80;;;;;;;1.87;67.16;98287.72;106098;1274;98038;-70
2022/02/05 02:46:29;;;;;;;29.10;13.40;;;;;;;1.88;67.09;98291.70;106091;1274;108276;-70
2022/02/05 02:48:59;;;;;;;27.90;14.70;;;;;;;1.88;66.89;98290.64;106090;1274;95299;-68
2022/02/05 02:57:29;;;;;;;28.60;14.80;;;;;;;1.87;66.91;98282.34;106001;1274;98014;-67
2022/02/05 03:00:01;;;;;;;30.30;15.40;;;;;;;1.87;67.05;98281.95;106067;1274;107439;-70
2022/02/05 03:02:33;;;;;;;30.10;14.70;;;;;;;1.88;67.24;98283.30;106033;1274;96333;-70
2022/02/05 03:05:01;;;;;;;31.00;15.80;;;;;;;1.90;67.10;98283.89;106967;1274;95587;-67
2022/02/05 03:07:29;;;;;;;28.70;13.90;;;;;;;1.94;67.25;98278.84;107852;1274;112775;-69
2022/02/05 03:09:57;;;;;;;27.90;13.30;;;;;;;1.97;67.30;98275.71;106970;1274;96351;-68
2022/02/05 03:12:24;;;;;;;29.90;14.20;;;;;;;1.99;66.99;98271.39;106359;1274;107343;-70
2022/02/05 03:14:53;;;;;;;31.30;14.80;;;;;;;2.01;67.28;98276.05;105959;1274;97971;-67
2022/02/05 03:17:21;;;;;;;26.60;13.90;;;;;;;2.02;67.04;98273.23;107251;1274;95887;-68
2022/02/05 03:19:57;;;;;;;30.80;16.00;;;;;;;2.04;67.31;98282.19;106149;1274;111687;-69
2022/02/05 03:22:25;;;;;;;27.20;13.80;;;;;;;2.03;67.25;98286.39;106150;1274;97896;-69
2022/02/05 03:24:53;;;;;;;30.70;14.80;;;;;;;2.04;67.07;98290.90;106106;1274;108298;-70
2022/02/05 03:27:24;;;;;;;28.00;15.20;;;;;;;2.03;66.92;98290.77;106161;1274;97870;-70
2022/02/05 03:29:55;;;;;;;27.30;13.80;;;;;;;2.05;67.12;98293.85;106180;1274;97956;-69
2022/02/05 03:32:24;;;;;;;27.70;13.60;;;;;;;2.07;67.18;98291.64;106034;1274;142684;-68
2022/02/05 03:34:53;;;;;;;30.60;15.30;;;;;;;2.09;67.25;98291.20;106139;1274;97701;-70
2022/02/05 03:37:24;;;;;;;28.80;13.70;;;;;;;2.11;67.27;98292.70;106131;1274;108397;-69
2022/02/05 03:39:51;;;;;;;26.30;13.70;;;;;;;2.11;67.34;98290.59;106108;1274;95283;-71
2022/02/05 03:42:19;;;;;;;26.90;14.20;;;;;;;2.11;67.25;98293.38;106082;1274;97866;-69
2022/02/05 03:44:47;;;;;;;29.90;14.30;;;;;;;2.12;67.30;98295.79;106013;1274;110946;-70
2022/02/05 03:47:15;;;;;;;28.30;15.50;;;;;;;2.13;67.12;98295.05;106181;1274;97099;-67
2022/02/05 03:49:46;;;;;;;28.90;13.70;;;;;;;2.12;67.10;98294.02;106397;1274;108295;-70
2022/02/05 03:52:14;;;;;;;29.60;14.50;;;;;;;2.12;67.25;98288.63;106136;1274;97806;-65
2022/02/05 03:54:44;;;;;;;25.10;12.60;;;;;;;2.12;67.56;98293.88;106093;1274;97880;-70
2022/02/05 03:57:14;;;;;;;28.40;14.40;;;;;;;2.11;67.05;98286.40;106166;1274;111432;-69
2022/02/05 03:59:45;;;;;;;30.40;15.00;;;;;;;2.10;67.23;98291.67;106152;1274;96245;-69
2022/02/05 04:02:13;;;;;;;29.70;15.00;;;;;;;2.08;67.06;98301.54;106040;1274;108325;-69
2022/02/05 04:04:41;;;;;;;30.40;15.60;;;;;;;2.07;67.06;98299.70;105955;1274;98041;-69
2022/02/05 04:07:08;;;;;;;29.40;14.50;;;;;;;2.06;67.28;98299.90;107028;1274;97902;-67
2022/02/05 04:09:42;;;;;;;28.30;14.10;;;;;;;2.06;66.87;98305.00;106850;1274;111954;-67
2022/02/05 04:17:43;;;;;;;30.70;15.00;;;;;;;2.08;67.06;98302.63;106780;1274;97915;-70
2022/02/05 04:20:11;;;;;;;27.20;14.30;;;;;;;2.08;67.02;98304.70;106211;1274;97889;-68
2022/02/05 04:22:42;;;;;;;29.20;14.50;;;;;;;2.10;67.05;98303.73;106157;1274;111988;-68
2022/02/05 04:25:13;;;;;;;28.50;14.90;;;;;;;2.10;67.43;98305.69;106124;1274;97880;-68
2022/02/05 04:27:43;;;;;;;30.60;14.30;;;;;;;2.10;67.16;98304.29;106107;1274;108478;-69
2022/02/05 04:30:14;;;;;;;30.70;15.90;;;;;;;2.09;67.33;98297.67;106022;1274;97889;-69
2022/02/05 04:32:42;;;;;;;28.40;15.50;;;;;;;2.09;67.24;98298.36;106045;1274;95884;-67
2022/02/05 04:35:10;;;;;;;28.20;14.90;;;;;;;2.09;67.18;98299.27;106038;1274;112030;-70
2022/02/05 04:37:38;;;;;;;28.30;14.30;;;;;;;2.08;67.15;98305.58;106160;1274;97826;-69
2022/02/05 04:40:51;;;;;;;29.50;15.40;;;;;;;2.09;67.15;98308.14;106155;1274;108347;-68
2022/02/05 05:10:10;;;;;;;25.30;12.80;;;;;;;2.19;67.18;98281.77;106136;1274;95269;-69
2022/02/05 05:20:40;;;;;;;31.30;15.90;;;;;;;2.26;67.04;98289.81;106152;1274;108487;-67
2022/02/05 05:23:07;;;;;;;30.30;14.30;;;;;;;2.26;67.34;98289.85;106177;1274;97765;-67
2022/02/05 05:25:35;;;;;;;32.30;15.80;;;;;;;2.26;67.11;98292.08;106107;1274;95168;-68
2022/02/05 05:28:06;;;;;;;29.90;15.90;;;;;;;2.26;67.27;98284.20;106119;1274;112212;-69
2022/02/05 05:30:33;;;;;;;29.20;15.00;;;;;;;2.27;66.94;98287.34;106111;1274;97966;-68
2022/02/05 05:33:07;;;;;;;33.30;15.30;;;;;;;2.28;67.20;98286.59;106128;1274;109111;-67
2022/02/05 05:35:38;;;;;;;32.40;16.10;;;;;;;2.27;67.13;98289.06;106129;1274;96342;-68
2022/02/05 05:38:09;;;;;;;31.00;16.10;;;;;;;2.27;67.12;98292.58;106100;1274;97876;-68
2022/02/05 05:40:38;;;;;;;30.90;15.50;;;;;;;2.26;67.15;98289.63;106155;1274;112305;-68
2022/02/05 05:44:30;;;;;;;27.10;14.20;;;;;;;2.28;67.18;98293.92;106179;1274;97906;-69
2022/02/05 05:46:30;;;;;;;29.50;15.50;;;;;;;2.28;67.05;98292.86;106080;1274;108176;-68
2022/02/05 05:49:34;;;;;;;30.30;14.00;;;;;;;2.28;67.12;98297.76;106071;1274;97910;-68
2022/02/05 05:52:07;;;;;;;31.50;16.20;;;;;;;2.28;67.33;98302.84;106068;1274;97921;-69
2022/02/05 05:54:36;;;;;;;27.60;14.00;;;;;;;2.28;67.25;98304.77;106128;1274;112023;-68
2022/02/05 05:57:07;;;;;;;29.10;15.10;;;;;;;2.29;67.52;98303.66;105992;1275;97912;-69
2022/02/05 05:59:41;;;;;;;29.80;15.20;;;;;;;2.29;67.04;98305.07;106187;1274;107587;-69
2022/02/05 06:02:12;;;;;;;29.20;15.00;;;;;;;2.31;67.33;98307.08;106132;1274;97990;-69
2022/02/05 06:04:40;;;;;;;28.50;15.50;;;;;;;2.33;67.31;98312.23;106117;1274;96487;-71
2022/02/05 06:07:08;;;;;;;30.00;15.70;;;;;;;2.34;67.28;98318.99;106019;1274;112031;-70
2022/02/05 06:09:40;;;;;;;29.90;15.40;;;;;;;2.35;67.31;98324.38;106065;1274;96284;-69
2022/02/05 06:12:14;;;;;;;28.90;15.00;;;;;;;2.36;67.40;98337.09;106135;1274;108337;-67
2022/02/05 06:14:43;;;;;;;29.80;15.60;;;;;;;2.37;66.94;98347.86;106121;1274;97522;-69
2022/02/05 06:17:22;;;;;;;30.00;15.50;;;;;;;2.39;67.21;98354.79;106161;1274;98433;-72
2022/02/05 06:19:50;;;;;;;32.20;16.50;;;;;;;2.40;67.41;98357.70;106131;1274;111428;-72
2022/02/05 06:22:20;;;;;;;30.80;15.50;;;;;;;2.41;67.52;98361.86;106162;1274;97899;-73
2022/02/05 06:24:48;;;;;;;30.10;15.40;;;;;;;2.41;67.19;98374.31;106123;1274;107677;-70
2022/02/05 06:27:19;;;;;;;29.20;14.80;;;;;;;2.38;67.45;98379.31;106047;1274;97765;-69
2022/02/05 06:29:47;;;;;;;30.70;15.60;;;;;;;2.36;67.62;98386.08;106051;1274;97848;-67
2022/02/05 06:32:17;;;;;;;30.60;15.90;;;;;;;2.35;67.61;98402.41;105981;1274;111245;-70
2022/02/05 06:34:48;;;;;;;32.40;16.60;;;;;;;2.30;67.33;98402.61;106086;1274;95688;-67
2022/02/05 06:37:18;;;;;;;31.00;15.80;;;;;;;2.27;67.48;98400.66;106103;1274;108478;-68
2022/02/05 06:39:48;;;;;;;31.40;17.90;;;;;;;2.23;67.59;98404.03;106132;1274;97886;-69
2022/02/05 06:42:16;;;;;;;30.70;16.20;;;;;;;2.22;67.60;98413.86;106139;1274;95375;-68
2022/02/05 06:44:47;;;;;;;32.10;16.00;;;;;;;2.21;67.75;98419.88;106193;1274;112056;-68
2022/02/05 06:47:14;;;;;;;29.70;15.90;;;;;;;2.21;67.82;98431.77;106197;1274;97996;-71
2022/02/05 06:49:45;;;;;;;31.30;15.90;;;;;;;2.21;67.73;98435.95;106175;1274;107195;-71
2022/02/05 06:52:13;;;;;;;29.70;15.50;;;;;;;2.21;67.68;98445.94;106071;1274;97996;-70
2022/02/05 06:54:41;;;;;;;28.50;15.20;;;;;;;2.20;67.89;98453.67;106075;1274;95190;-68
2022/02/05 06:57:09;;;;;;;32.70;16.00;;;;;;;2.18;68.10;98464.45;105952;1275;111775;-71
2022/02/05 06:59:37;;;;;;;30.20;16.30;;;;;;;2.15;68.02;98472.64;106121;1274;98062;-71
2022/02/05 07:02:07;;;;;;;28.20;13.90;;;;;;;2.13;68.00;98474.28;106092;1274;108626;-69
2022/02/05 07:04:35;;;;;;;30.90;14.10;;;;;;;2.08;68.06;98464.56;105980;1274;98647;-70
2022/02/05 07:07:04;;;;;;;29.30;14.50;;;;;;;2.01;68.32;98464.38;106101;1274;95339;-69
2022/02/05 07:09:32;;;;;;;28.30;14.60;;;;;;;1.96;68.40;98459.90;105995;1274;112075;-71
2022/02/05 07:12:01;;;;;;;28.30;14.70;;;;;;;1.95;68.79;98463.64;105912;1274;97941;-72
2022/02/05 07:14:35;;;;;;;27.80;14.20;;;;;;;1.93;68.10;98459.34;105991;1274;108553;-70
2022/02/05 07:17:18;;;;;;;31.20;16.10;;;;;;;1.94;68.40;98464.73;105980;1274;97978;-70
2022/02/05 07:22:25;;;;;;;31.80;16.70;;;;;;;1.89;68.70;98469.14;106145;1274;111748;-70
2022/02/05 07:30:27;;;;;;;29.20;15.80;;;;;;;1.83;69.11;98480.42;106103;1274;97888;-68
2022/02/05 07:32:58;;;;;;;28.70;15.00;;;;;;;1.83;68.90;98482.88;106131;1274;97985;-74
2022/02/05 07:35:26;;;;;;;30.60;15.20;;;;;;;1.87;69.47;98475.36;106098;1274;111281;-71
2022/02/05 07:37:57;;;;;;;28.30;13.80;;;;;;;1.87;69.38;98481.13;106050;1274;97995;-69
2022/02/05 07:40:27;;;;;;;25.40;12.30;;;;;;;1.87;69.60;98491.60;106054;1274;106746;-70
2022/02/05 07:42:54;;;;;;;25.90;13.50;;;;;;;1.89;69.62;98508.30;106105;1274;95380;-71
2022/02/05 07:45:22;;;;;;;24.20;12.10;;;;;;;1.93;69.68;98519.33;106112;1274;97954;-71
2022/02/05 07:47:50;;;;;;;25.60;11.80;;;;;;;1.98;69.79;98525.41;106141;1274;110363;-72
2022/02/05 07:50:18;;;;;;;24.10;12.20;;;;;;;2.02;69.93;98534.84;106120;1274;97892;-70
2022/02/05 07:52:46;;;;;;;24.90;11.20;;;;;;;2.04;69.93;98542.93;105815;1274;108523;-72
2022/02/05 07:55:14;;;;;;;27.30;13.30;;;;;;;2.07;69.76;98549.29;106026;1274;97865;-73
2022/02/05 07:57:45;;;;;;;27.70;14.00;;;;;;;2.09;70.11;98554.60;106127;1274;95201;-71
2022/02/05 08:00:13;;;;;;;28.30;13.20;;;;;;;2.12;69.91;98554.98;106135;1274;111504;-70
2022/02/05 08:02:41;;;;;;;24.70;10.70;;;;;;;2.15;70.07;98557.46;106117;1276;97982;-70
2022/02/05 08:05:10;;;;;;;23.90;10.20;;;;;;;2.19;70.53;98560.42;106145;1274;107757;-72
2022/02/05 08:07:39;;;;;;;25.00;10.20;;;;;;;2.26;70.42;98560.98;106168;1274;98023;-70
2022/02/05 08:10:11;;;;;;;20.30;7.00;;;;;;;2.34;70.17;98567.09;106134;1274;95902;-72
2022/02/05 08:12:42;;;;;;;13.10;4.90;;;;;;;2.42;70.49;98571.81;106177;1274;111294;-72
2022/02/05 08:15:15;;;;;;;13.10;4.40;;;;;;;2.50;70.32;98576.82;105952;1274;95551;-67
2022/02/05 08:17:46;;;;;;;12.10;4.90;;;;;;;2.59;70.84;98581.35;106056;1274;107494;-70
2022/02/05 08:20:14;;;;;;;11.40;3.60;;;;;;;2.64;70.45;98587.02;106089;1274;97748;-70
2022/02/05 08:22:43;;;;;;;8.10;3.40;;;;;;;2.69;70.57;98586.45;106109;1274;97963;-71
2022/02/05 08:25:11;;;;;;;9.80;3.10;;;;;;;2.74;70.19;98590.92;106025;1272;111356;-73
2022/02/05 08:27:40;;;;;;;10.30;3.40;;;;;;;2.78;70.27;98588.65;106173;1274;95956;-72
2022/02/05 08:30:14;;;;;;;10.10;3.70;;;;;;;2.81;70.59;98594.27;106107;1274;107754;-69
2022/02/05 08:32:44;;;;;;;7.00;3.30;;;;;;;2.84;70.41;98598.89;106125;1274;98047;-69
2022/02/05 08:35:13;;;;;;;9.90;3.80;;;;;;;2.86;70.25;98603.52;106141;1274;97920;-70
2022/02/05 08:37:45;;;;;;;13.20;4.00;;;;;;;2.88;70.32;98606.58;106054;1274;111404;-70
2022/02/05 08:40:19;;;;;;;13.50;4.70;;;;;;;2.89;70.46;98607.23;105991;1274;97234;-67
2022/02/05 08:42:47;;;;;;;16.80;5.60;;;;;;;2.88;70.28;98609.02;105948;1274;108331;-68
2022/02/05 08:45:17;;;;;;;15.10;5.30;;;;;;;2.89;70.64;98610.18;106010;1274;98569;-70
2022/02/05 08:47:48;;;;;;;14.40;5.50;;;;;;;2.91;70.42;98611.48;106102;1274;97874;-70
2022/02/05 08:50:19;;;;;;;14.10;4.10;;;;;;;2.91;70.57;98613.77;106087;1274;111381;-68
2022/02/05 08:52:53;;;;;;;11.00;3.20;;;;;;;2.92;70.59;98620.92;106075;1276;97953;-71
2022/02/05 08:55:28;;;;;;;9.90;3.30;;;;;;;2.93;70.58;98622.61;106153;1274;105804;-70
2022/02/05 08:57:59;;;;;;;12.20;4.30;;;;;;;2.94;70.71;98625.38;105975;1275;97869;-70
2022/02/05 09:00:30;;;;;;;10.90;4.00;;;;;;;2.95;70.64;98625.66;106109;1274;96076;-76
2022/02/05 09:03:03;;;;;;;9.20;3.40;;;;;;;2.97;70.63;98625.39;106212;1274;111508;-76
2022/02/05 09:05:40;;;;;;;8.60;3.10;;;;;;;3.01;70.52;98632.91;106099;1274;97999;-77
2022/02/05 09:08:19;;;;;;;12.50;3.40;;;;;;;3.04;70.53;98639.61;106056;1274;108557;-71
2022/02/05 09:11:42;;;;;;;10.90;3.70;;;;;;;3.06;70.31;98637.23;106095;1274;97771;-74
2022/02/05 09:14:13;;;;;;;10.60;3.30;;;;;;;3.08;70.32;98640.11;106091;1274;97864;-73
2022/02/05 09:16:45;;;;;;;8.30;2.50;;;;;;;3.15;70.44;98639.95;106155;1274;111655;-71
2022/02/05 09:19:14;;;;;;;6.70;2.70;;;;;;;3.23;70.48;98644.85;106064;1274;97970;-69
2022/02/05 09:21:42;;;;;;;7.00;2.50;;;;;;;3.31;70.42;98649.70;106100;1275;107727;-71
2022/02/05 09:24:10;;;;;;;9.30;3.20;;;;;;;3.39;70.32;98650.86;106144;1274;98104;-73
2022/02/05 09:26:45;;;;;;;7.60;2.60;;;;;;;3.45;70.03;98656.17;106099;1274;96519;-73
2022/02/05 09:29:23;;;;;;;6.40;2.10;;;;;;;3.52;69.90;98653.72;105911;1274;111382;-76
2022/02/05 09:31:52;;;;;;;6.40;2.30;;;;;;;3.65;70.04;98660.96;106081;1272;97961;-73
2022/02/05 09:34:24;;;;;;;8.60;2.60;;;;;;;3.79;69.86;98663.92;106116;1274;107800;-73
2022/02/05 09:36:52;;;;;;;6.00;2.50;;;;;;;4.27;69.82;98662.83;106028;1274;96672;-72
2022/02/05 09:39:20;;;;;;;9.40;2.60;;;;;;;4.88;69.62;98666.05;106145;1274;97874;-72
2022/02/05 09:41:48;;;;;;;5.40;2.70;;;;;;;5.36;69.62;98655.44;106113;1274;111287;-73
2022/02/05 09:44:29;;;;;;;7.40;2.40;;;;;;;5.38;69.07;98654.98;106122;1274;97956;-72
2022/02/05 09:47:01;;;;;;;3.90;2.10;;;;;;;5.31;69.39;98672.63;106050;1274;107699;-72
2022/02/05 09:49:29;;;;;;;6.30;1.80;;;;;;;5.17;68.97;98666.00;106131;1274;98010;-74
2022/02/05 09:52:10;;;;;;;6.10;2.20;;;;;;;5.03;69.30;98669.29;106158;1274;97856;-72
2022/02/05 09:54:45;;;;;;;7.10;2.90;;;;;;;4.89;69.08;98673.38;106157;1274;112108;-72
2022/02/05 09:57:13;;;;;;;5.90;2.20;;;;;;;4.80;68.51;98682.31;105782;1276;97876;-73
2022/02/05 09:59:57;;;;;;;7.30;2.50;;;;;;;4.71;68.82;98678.75;106030;1274;106742;-72
2022/02/05 10:02:37;;;;;;;5.40;2.50;;;;;;;4.70;69.17;98673.71;106062;1274;97953;-71
2022/02/05 10:05:15;;;;;;;5.20;2.50;;;;;;;4.80;69.05;98671.95;106123;1271;97954;-73
2022/02/05 10:08:03;;;;;;;9.20;3.10;;;;;;;4.83;69.34;98671.27;106074;1274;112236;-75
2022/02/05 10:10:43;;;;;;;6.30;2.30;;;;;;;4.82;69.16;98676.23;106103;1274;97856;-73
2022/02/05 10:13:20;;;;;;;11.70;3.60;;;;;;;4.76;69.17;98671.46;106131;1274;107754;-72
2022/02/05 10:15:53;;;;;;;8.10;3.00;;;;;;;4.71;68.79;98685.45;106068;1274;97957;-72
2022/02/05 10:18:43;;;;;;;6.00;2.70;;;;;;;4.59;68.78;98679.55;106080;1274;97866;-70
2022/02/05 10:21:21;;;;;;;6.00;2.60;;;;;;;4.41;68.44;98687.94;106098;1274;110179;-72
2022/02/05 10:23:57;;;;;;;9.90;3.20;;;;;;;4.20;68.63;98692.55;106112;1274;97844;-68
2022/02/05 10:26:43;;;;;;;4.70;2.00;;;;;;;3.96;68.70;98701.86;106040;1274;107739;-69
2022/02/05 10:29:15;;;;;;;8.00;2.70;;;;;;;3.68;68.53;98692.55;105977;1274;97934;-69
2022/02/05 10:31:55;;;;;;;11.60;3.10;;;;;;;3.52;68.79;98691.41;106050;1274;96352;-68
2022/02/05 10:34:25;;;;;;;11.20;3.00;;;;;;;3.46;68.50;98691.02;105839;1274;112050;-68
2022/02/05 10:37:23;;;;;;;11.90;3.90;;;;;;;3.53;68.50;98679.64;106510;1274;96374;-68
2022/02/05 10:45:19;;;;;;;15.70;4.00;;;;;;;4.11;69.17;98686.33;106089;1274;97732;-69
2022/02/05 10:48:00;;;;;;;14.80;4.00;;;;;;;4.24;68.41;98686.38;106139;1274;111401;-71
2022/02/05 10:50:34;;;;;;;15.30;4.40;;;;;;;4.30;68.71;98686.40;106064;1274;97896;-74
2022/02/05 10:53:21;;;;;;;14.80;4.10;;;;;;;4.37;68.83;98684.95;106097;1274;109842;-73
2022/02/05 10:58:44;;;;;;;11.80;3.70;;;;;;;4.48;68.97;98698.27;106154;1273;97863;-73
2022/02/05 11:07:13;;;;;;;13.70;3.40;;;;;;;4.55;68.05;98701.58;106970;1274;105591;-72
2022/02/05 11:09:46;;;;;;;10.90;3.90;;;;;;;4.53;68.26;98706.77;105928;1274;98076;-71
2022/02/05 11:20:04;;;;;;;15.70;3.70;;;;;;;4.45;68.08;98713.70;105895;1274;106769;-74
2022/02/05 11:22:40;;;;;;;13.20;3.70;;;;;;;4.43;68.22;98718.89;106093;1274;95368;-74
2022/02/05 11:25:11;;;;;;;15.20;4.40;;;;;;;4.45;68.50;98711.42;106047;1274;97875;-72
2022/02/05 11:27:45;;;;;;;16.40;4.30;;;;;;;4.48;68.26;98713.55;106035;1274;111411;-74
2022/02/05 11:30:22;;;;;;;12.70;4.20;;;;;;;4.52;67.03;98707.69;106033;1274;95268;-74
2022/02/05 11:32:55;;;;;;;17.20;4.50;;;;;;;4.61;67.89;98707.06;106148;1274;107746;-75
2022/02/05 11:35:45;;;;;;;17.00;4.80;;;;;;;4.65;67.74;98712.66;106146;1274;96577;-69
2022/02/05 11:38:27;;;;;;;15.50;4.20;;;;;;;4.64;67.27;98716.73;106170;1274;95659;-76
2022/02/05 11:40:56;;;;;;;16.50;5.00;;;;;;;4.61;67.18;98721.43;106146;1274;110520;-73
2022/02/05 11:43:27;;;;;;;14.30;4.90;;;;;;;4.62;67.62;98718.22;106161;1274;97885;-77
2022/02/05 11:46:18;;;;;;;18.00;5.10;;;;;;;4.67;67.04;98721.99;106122;1274;107820;-72
2022/02/05 11:48:49;;;;;;;12.20;4.10;;;;;;;4.68;67.49;98726.91;106197;1274;96989;-69
2022/02/05 11:51:20;;;;;;;15.00;4.10;;;;;;;4.64;66.81;98734.13;106119;1274;98602;-74
2022/02/05 11:54:00;;;;;;;15.80;4.30;;;;;;;4.51;66.80;98733.73;106127;1274;110880;-74
2022/02/05 11:56:37;;;;;;;14.90;4.30;;;;;;;4.37;66.61;98723.41;106116;1274;97727;-73
2022/02/05 11:59:05;;;;;;;16.40;4.40;;;;;;;4.28;67.15;98724.73;106140;1274;107634;-73
2022/02/05 12:01:38;;;;;;;13.40;3.90;;;;;;;4.26;67.27;98720.65;106072;1274;97887;-73
2022/02/05 12:04:18;;;;;;;16.90;4.70;;;;;;;4.30;67.35;98719.77;106125;1274;97967;-76
2022/02/05 12:07:05;;;;;;;15.70;5.20;;;;;;;4.37;67.48;98719.03;106108;1274;111336;-71
2022/02/05 12:09:53;;;;;;;16.10;4.50;;;;;;;4.32;66.36;98723.69;105928;1274;96980;-72
2022/02/05 12:12:27;;;;;;;22.00;5.40;;;;;;;4.26;66.80;98726.11;105988;1274;107772;-70
2022/02/05 12:15:24;;;;;;;20.50;5.60;;;;;;;4.26;67.01;98727.00;106032;1274;97934;-73
2022/02/05 12:26:25;;;;;;;18.60;5.10;;;;;;;4.60;66.86;98733.79;106102;1274;107665;-72
2022/02/05 12:28:55;;;;;;;16.80;5.20;;;;;;;4.61;67.01;98734.79;106138;1274;97738;-71
2022/02/05 12:31:26;;;;;;;14.60;4.90;;;;;;;4.63;67.18;98732.77;106148;1274;97892;-73
2022/02/05 12:33:59;;;;;;;16.60;4.40;;;;;;;4.64;66.36;98730.08;105996;1274;111365;-72
2022/02/05 12:36:42;;;;;;;21.90;6.50;;;;;;;4.62;66.72;98728.91;106100;1274;95564;-74
2022/02/05 12:39:17;;;;;;;17.80;5.20;;;;;;;4.66;66.79;98732.29;106133;1274;107822;-72
2022/02/05 12:41:53;;;;;;;14.20;4.70;;;;;;;4.71;66.96;98730.23;106098;1274;97857;-71
2022/02/05 12:44:24;;;;;;;17.70;6.10;;;;;;;4.76;66.80;98735.40;106178;1274;97918;-71
2022/02/05 12:47:09;;;;;;;21.20;5.00;;;;;;;4.84;67.01;98735.14;106125;1274;111344;-72
2022/02/05 12:52:07;;;;;;;16.30;5.10;;;;;;;5.19;66.40;98732.88;106092;1274;107832;-70
2022/02/05 12:54:43;;;;;;;19.50;5.90;;;;;;;5.30;66.36;98731.22;106055;1274;97959;-72
2022/02/05 12:57:17;;;;;;;17.40;4.80;;;;;;;5.35;66.46;98736.00;106120;1274;95419;-73
2022/02/05 12:59:46;;;;;;;14.70;4.10;;;;;;;5.37;65.86;98736.45;106133;1274;111533;-73
2022/02/05 13:02:17;;;;;;;20.00;6.10;;;;;;;5.32;65.99;98728.98;106210;1274;97968;-73
2022/02/05 13:04:55;;;;;;;20.60;6.00;;;;;;;5.31;65.91;98727.64;106180;1274;107533;-73
2022/02/05 13:07:28;;;;;;;18.70;5.60;;;;;;;5.35;65.68;98726.35;106061;1274;97977;-72
2022/02/05 13:10:00;;;;;;;18.50;5.50;;;;;;;5.46;66.24;98722.05;106114;1274;97886;-73
2022/02/05 13:12:39;;;;;;;16.00;5.30;;;;;;;5.63;64.52;98733.39;106112;1274;111449;-73
2022/02/05 13:15:18;;;;;;;17.40;5.20;;;;;;;5.73;65.90;98731.75;106159;1274;95407;-70
2022/02/05 13:28:34;;;;;;;17.40;5.10;;;;;;;6.00;65.51;98732.69;106152;1274;95980;-74
2022/02/05 13:39:26;;;;;;;16.20;4.60;;;;;;;6.01;64.34;98744.43;106157;1274;111410;-73
2022/02/05 13:42:09;;;;;;;21.30;5.90;;;;;;;5.90;63.37;98747.48;106208;1273;96287;-73
2022/02/05 13:44:57;;;;;;;20.10;6.10;;;;;;;5.69;63.69;98753.64;106180;1274;107707;-73
2022/02/05 13:47:49;;;;;;;19.90;4.80;;;;;;;5.50;64.02;98758.45;106225;1274;98085;-73
2022/02/05 13:50:20;;;;;;;18.30;5.90;;;;;;;5.34;62.91;98774.60;106220;1274;97930;-71
2022/02/05 13:52:55;;;;;;;14.00;4.30;;;;;;;5.18;63.33;98813.63;106220;1274;111992;-73
2022/02/05 13:55:29;;;;;;;9.70;3.00;;;;;;;4.86;63.85;98843.65;106205;1274;97996;-74
2022/02/05 13:58:02;;;;;;;9.60;2.80;;;;;;;4.22;64.47;98815.63;106157;1274;107734;-75
2022/02/05 14:00:47;;;;;;;11.50;3.30;;;;;;;3.71;64.69;98813.05;106187;1274;97969;-78
2022/02/05 14:03:38;;;;;;;10.60;3.50;;;;;;;3.51;64.68;98813.65;106206;1274;97834;-76
2022/02/05 14:06:15;;;;;;;12.50;3.50;;;;;;;3.50;64.91;98805.11;106108;1274;111379;-77
2022/02/05 14:08:47;;;;;;;11.60;3.60;;;;;;;3.49;64.83;98803.59;106112;1274;95177;-76
2022/02/05 14:11:33;;;;;;;16.10;4.70;;;;;;;3.48;64.82;98801.70;106211;1274;107930;-77
2022/02/05 14:14:13;;;;;;;15.80;5.00;;;;;;;3.46;64.96;98808.98;106209;1274;97879;-76
2022/02/05 14:16:42;;;;;;;16.70;5.00;;;;;;;3.46;64.93;98810.89;106225;1274;97966;-74
2022/02/05 14:19:24;;;;;;;17.80;5.10;;;;;;;3.46;65.23;98807.07;106085;1274;111130;-75
2022/02/05 14:21:54;;;;;;;17.50;5.40;;;;;;;3.48;65.07;98805.55;106159;1274;97650;-73
2022/02/05 14:24:29;;;;;;;18.50;6.70;;;;;;;3.52;65.12;98806.79;106162;1274;106746;-69
2022/02/05 14:27:14;;;;;;;23.10;6.90;;;;;;;3.57;65.38;98810.02;106116;1274;97954;-71
2022/02/05 14:32:40;;;;;;;24.90;7.00;;;;;;;3.68;65.16;98813.90;106100;1274;111322;-69
2022/02/05 14:40:41;;;;;;;22.40;7.60;;;;;;;3.86;65.29;98817.21;106016;1274;97980;-71
2022/02/05 14:43:10;;;;;;;24.00;7.80;;;;;;;3.79;65.13;98817.75;106073;1274;97825;-71
2022/02/05 14:45:38;;;;;;;23.30;7.60;;;;;;;3.66;64.94;98817.50;106069;1274;111391;-70
2022/02/05 14:48:06;;;;;;;19.00;6.50;;;;;;;3.60;65.01;98817.64;106024;1274;97912;-71
2022/02/05 14:50:35;;;;;;;24.50;7.60;;;;;;;3.53;65.43;98812.50;105966;1274;107695;-70
2022/02/05 14:53:05;;;;;;;22.30;7.10;;;;;;;3.51;64.99;98817.17;106065;1274;97822;-71
2022/02/05 14:55:33;;;;;;;23.30;7.60;;;;;;;3.50;65.03;98817.19;106014;1274;96088;-70
2022/02/05 14:58:03;;;;;;;23.50;7.00;;;;;;;3.51;65.16;98820.13;107006;1274;111438;-72
2022/02/05 15:00:33;;;;;;;20.50;7.90;;;;;;;3.49;64.96;98825.33;106085;1274;95183;-69